Dundee, MI (48131)

7:42 PM EDT on July 30, 2016 (GMT -0400)
Near Dundee Middle School | | Change Station
Active Advisory: Areal Flood Advisory

Elev 666 ft 41.96 °N, 83.65 °W | Updated 12 seconds ago

Rain
Rain
70.5 °F
Feels Like 70.5 °F
N
0.0
Wind Variable Wind from SE
Gusts 0.0 mph

Today
High -- | Low -- °F
--% Chance of Precip.
Yesterday
High -- | Low -- °F
Precip. -- in
Pressure 29.94 in
Visibility 10.0 miles
Clouds Mostly Cloudy 1800 ft
Overcast 2500 ft
Dew Point 68 °F
Humidity 93%
Rainfall 0.60 in
Snow Depth Not available.
6:26 AM 8:54 PM
Waning Crescent, 10% visible
METAR KTTF 302335Z AUTO 10007KT 10SM BKN018 OVC025 24/21 A2994 RMK AO2 T02400209
Pressure 29.94 in
Visibility 10.0 miles
Clouds Mostly Cloudy 1800 ft
Overcast 2500 ft
Dew Point 68 °F
Humidity 93%
Rainfall 0.60 in
Snow Depth Not available.
6:26 AM 8:54 PM
Waning Crescent, 10% visible
METAR KTTF 302335Z AUTO 10007KT 10SM BKN018 OVC025 24/21 A2994 RMK AO2 T02400209

10-Day Weather Forecast

Almanac

Astronomy

Jul. 30, 2016 Rise Set
Actual Time
Civil Twilight
Nautical Twilight
Astronomical Twilight
Moon
Length of Visible Light
Length of Day
Tomorrow will be .
, % of the Moon is Illuminated

Today's Extremes

State Highs State Lows

Community

WunderPhotos

Upload Photos

1,928,680 photos uploaded!

WunderBlog® & News

Nearby

Air Quality

  Air Quality AQ Index Pollutant
Not available.

Snow Depth

Station Depth Elevation

Earthquake Activity

City Distance Mag. Time & Date
Minimum magnitude displayed is 2.5.

Coastal Water Temperatures

Place Temperature

Stations

Nearby Weather Stations

Station Location Temp. Windchill Dew Point Humidity Wind Precip. Elev Updated Type
                   

Watches & Warnings

Areal Flood Advisory
Issued: 7:26 PM EDT Jul. 30, 2016 – National Weather Service

The National Weather Service in Detroit/Pontiac has issued a

* Flood Advisory for...
Monroe County in southeastern Michigan...

* until 1030 PM EDT

* at 725 PM EDT... Doppler radar indicated heavy rain due to
thunderstorms. This will cause minor flooding in the advisory area.

* Some locations that will experience flooding include...
Monroe... Milan... Dundee... Carleton... Ida... Petersburg... Maybee...
Rockwood... South Rockwood... Estral Beach... Woodland Beach...
Azalia... Oakville... Scofield... Newport... Cone...
Stony Point and Detroit Beach.

The heaviest rainfall can be expected between Dundee and Maybee and
points north towards Milan. National Weather Service radar indicates
that pockets of rainfall in excess of one inch have fallen over the
past few hours. Additional heavy rain will also expand slowly east
into the area through 830 PM with additional amounts around one inch
possible in localized spots.

Precautionary/preparedness actions...

Turn around... don't drown when encountering flooded roads. Most flood
deaths occur in vehicles.


Lat... Lon 4208 8377 4209 8329 4207 8327 4207 8326
      4205 8322 4198 8318 4177 8376


Dg